sensor_id;sensor_type;location;lat;lon;timestamp;temperature;humidity
975;DHT22;6115;49.296;10.602;2023-12-14T00:02:05;6.70;82.80
975;DHT22;6115;49.296;10.602;2023-12-14T00:07:05;6.70;82.80
975;DHT22;6115;49.296;10.602;2023-12-14T00:12:06;6.60;82.70
975;DHT22;6115;49.296;10.602;2023-12-14T00:17:06;6.70;82.80
975;DHT22;6115;49.296;10.602;2023-12-14T00:22:07;6.70;82.80
975;DHT22;6115;49.296;10.602;2023-12-14T00:27:07;6.50;82.70
975;DHT22;6115;49.296;10.602;2023-12-14T00:32:08;6.60;83.00
975;DHT22;6115;49.296;10.602;2023-12-14T00:37:08;6.50;82.90
975;DHT22;6115;49.296;10.602;2023-12-14T00:42:09;6.40;83.30
975;DHT22;6115;49.296;10.602;2023-12-14T00:47:09;6.40;83.60
975;DHT22;6115;49.296;10.602;2023-12-14T00:52:10;6.30;84.00
975;DHT22;6115;49.296;10.602;2023-12-14T00:57:11;6.30;84.50
975;DHT22;6115;49.296;10.602;2023-12-14T01:02:11;6.40;84.90
975;DHT22;6115;49.296;10.602;2023-12-14T01:07:12;6.40;85.00
975;DHT22;6115;49.296;10.602;2023-12-14T01:12:12;6.40;84.80
975;DHT22;6115;49.296;10.602;2023-12-14T01:17:13;6.40;84.80
975;DHT22;6115;49.296;10.602;2023-12-14T01:22:14;6.40;84.90
975;DHT22;6115;49.296;10.602;2023-12-14T01:27:14;6.50;84.80
975;DHT22;6115;49.296;10.602;2023-12-14T01:32:15;6.50;84.70
975;DHT22;6115;49.296;10.602;2023-12-14T01:37:15;6.50;84.60
975;DHT22;6115;49.296;10.602;2023-12-14T01:42:16;6.40;84.50
975;DHT22;6115;49.296;10.602;2023-12-14T01:47:16;6.40;84.70
975;DHT22;6115;49.296;10.602;2023-12-14T01:52:17;6.40;84.70
975;DHT22;6115;49.296;10.602;2023-12-14T01:57:18;6.40;84.80
975;DHT22;6115;49.296;10.602;2023-12-14T02:02:18;6.40;84.80
975;DHT22;6115;49.296;10.602;2023-12-14T02:07:19;6.50;84.90
975;DHT22;6115;49.296;10.602;2023-12-14T02:12:20;6.50;85.00
975;DHT22;6115;49.296;10.602;2023-12-14T02:17:20;6.50;85.00
975;DHT22;6115;49.296;10.602;2023-12-14T02:22:21;6.60;84.80
975;DHT22;6115;49.296;10.602;2023-12-14T02:27:21;6.60;84.70
975;DHT22;6115;49.296;10.602;2023-12-14T02:32:22;6.60;84.70
975;DHT22;6115;49.296;10.602;2023-12-14T02:37:22;6.70;84.50
975;DHT22;6115;49.296;10.602;2023-12-14T02:42:23;6.60;84.30
975;DHT22;6115;49.296;10.602;2023-12-14T02:47:23;6.60;84.10
975;DHT22;6115;49.296;10.602;2023-12-14T02:52:24;6.60;83.80
975;DHT22;6115;49.296;10.602;2023-12-14T02:57:25;6.60;83.70
975;DHT22;6115;49.296;10.602;2023-12-14T03:02:26;6.50;83.70
975;DHT22;6115;49.296;10.602;2023-12-14T03:07:26;6.60;83.80
975;DHT22;6115;49.296;10.602;2023-12-14T03:12:27;6.60;84.30
975;DHT22;6115;49.296;10.602;2023-12-14T03:17:27;6.60;83.50
975;DHT22;6115;49.296;10.602;2023-12-14T03:22:28;6.70;83.80
975;DHT22;6115;49.296;10.602;2023-12-14T03:27:29;6.50;83.60
975;DHT22;6115;49.296;10.602;2023-12-14T03:32:29;6.50;83.50
975;DHT22;6115;49.296;10.602;2023-12-14T03:37:30;6.40;83.50
975;DHT22;6115;49.296;10.602;2023-12-14T03:42:31;6.40;83.60
975;DHT22;6115;49.296;10.602;2023-12-14T03:47:31;6.50;83.80
975;DHT22;6115;49.296;10.602;2023-12-14T03:52:32;6.50;83.80
975;DHT22;6115;49.296;10.602;2023-12-14T03:57:32;6.60;83.90
975;DHT22;6115;49.296;10.602;2023-12-14T04:02:33;6.60;83.90
975;DHT22;6115;49.296;10.602;2023-12-14T04:07:35;6.50;83.50
975;DHT22;6115;49.296;10.602;2023-12-14T04:12:36;6.50;83.40
975;DHT22;6115;49.296;10.602;2023-12-14T04:17:37;6.40;83.00
975;DHT22;6115;49.296;10.602;2023-12-14T04:22:38;6.40;82.90
975;DHT22;6115;49.296;10.602;2023-12-14T04:27:38;6.40;83.00
975;DHT22;6115;49.296;10.602;2023-12-14T04:32:39;6.30;82.80
975;DHT22;6115;49.296;10.602;2023-12-14T04:37:40;6.20;83.00
975;DHT22;6115;49.296;10.602;2023-12-14T04:42:40;6.10;82.60
975;DHT22;6115;49.296;10.602;2023-12-14T04:47:41;6.00;82.40
975;DHT22;6115;49.296;10.602;2023-12-14T04:52:42;5.90;82.40
975;DHT22;6115;49.296;10.602;2023-12-14T04:57:45;5.90;82.80
975;DHT22;6115;49.296;10.602;2023-12-14T05:02:47;6.00;83.40
975;DHT22;6115;49.296;10.602;2023-12-14T05:07:48;6.00;83.90
975;DHT22;6115;49.296;10.602;2023-12-14T05:12:49;6.00;84.10
975;DHT22;6115;49.296;10.602;2023-12-14T05:17:49;6.00;84.10
975;DHT22;6115;49.296;10.602;2023-12-14T05:22:50;6.00;84.10
975;DHT22;6115;49.296;10.602;2023-12-14T05:27:51;6.00;84.40
975;DHT22;6115;49.296;10.602;2023-12-14T05:32:51;6.10;84.90
975;DHT22;6115;49.296;10.602;2023-12-14T05:37:52;6.20;85.00
975;DHT22;6115;49.296;10.602;2023-12-14T05:42:53;6.20;84.80
975;DHT22;6115;49.296;10.602;2023-12-14T05:47:53;6.20;84.50
975;DHT22;6115;49.296;10.602;2023-12-14T05:52:54;6.10;84.00
975;DHT22;6115;49.296;10.602;2023-12-14T05:57:54;6.10;83.90
975;DHT22;6115;49.296;10.602;2023-12-14T06:02:56;6.00;84.10
975;DHT22;6115;49.296;10.602;2023-12-14T06:07:57;6.00;84.30
975;DHT22;6115;49.296;10.602;2023-12-14T06:12:58;6.00;84.40
975;DHT22;6115;49.296;10.602;2023-12-14T06:17:59;6.10;85.20
975;DHT22;6115;49.296;10.602;2023-12-14T06:22:59;6.00;85.40
975;DHT22;6115;49.296;10.602;2023-12-14T06:28:00;6.00;85.30
975;DHT22;6115;49.296;10.602;2023-12-14T06:33:00;5.90;85.10
975;DHT22;6115;49.296;10.602;2023-12-14T06:38:01;5.90;84.70
975;DHT22;6115;49.296;10.602;2023-12-14T06:43:06;5.70;84.40
975;DHT22;6115;49.296;10.602;2023-12-14T06:48:07;5.70;84.40
975;DHT22;6115;49.296;10.602;2023-12-14T06:53:07;5.60;84.60
975;DHT22;6115;49.296;10.602;2023-12-14T06:58:08;5.50;84.20
975;DHT22;6115;49.296;10.602;2023-12-14T07:03:11;5.40;83.90
975;DHT22;6115;49.296;10.602;2023-12-14T07:08:12;5.50;84.40
975;DHT22;6115;49.296;10.602;2023-12-14T07:13:12;5.50;84.80
975;DHT22;6115;49.296;10.602;2023-12-14T07:18:13;5.60;85.10
975;DHT22;6115;49.296;10.602;2023-12-14T07:23:14;5.60;85.10
975;DHT22;6115;49.296;10.602;2023-12-14T07:28:14;5.70;85.10
975;DHT22;6115;49.296;10.602;2023-12-14T07:33:15;5.70;85.20
975;DHT22;6115;49.296;10.602;2023-12-14T07:38:16;5.70;85.10
975;DHT22;6115;49.296;10.602;2023-12-14T07:43:17;5.70;85.10
975;DHT22;6115;49.296;10.602;2023-12-14T07:48:17;5.70;85.20
975;DHT22;6115;49.296;10.602;2023-12-14T07:53:18;5.70;85.20
975;DHT22;6115;49.296;10.602;2023-12-14T07:58:18;5.70;85.20
975;DHT22;6115;49.296;10.602;2023-12-14T08:03:19;5.60;85.10
975;DHT22;6115;49.296;10.602;2023-12-14T08:08:19;5.60;84.50
975;DHT22;6115;49.296;10.602;2023-12-14T08:13:20;5.60;84.30
975;DHT22;6115;49.296;10.602;2023-12-14T08:18:21;5.60;84.10
975;DHT22;6115;49.296;10.602;2023-12-14T08:23:21;5.60;84.70
975;DHT22;6115;49.296;10.602;2023-12-14T08:28:22;5.50;83.70
975;DHT22;6115;49.296;10.602;2023-12-14T08:33:23;5.50;83.80
975;DHT22;6115;49.296;10.602;2023-12-14T08:38:24;5.50;83.80
975;DHT22;6115;49.296;10.602;2023-12-14T08:43:24;5.60;84.90
975;DHT22;6115;49.296;10.602;2023-12-14T08:48:25;5.90;85.40
975;DHT22;6115;49.296;10.602;2023-12-14T08:53:26;6.00;85.50
975;DHT22;6115;49.296;10.602;2023-12-14T08:58:27;6.00;85.50
975;DHT22;6115;49.296;10.602;2023-12-14T09:03:27;6.20;85.70
975;DHT22;6115;49.296;10.602;2023-12-14T09:08:28;6.20;85.00
975;DHT22;6115;49.296;10.602;2023-12-14T09:13:29;6.40;85.20
975;DHT22;6115;49.296;10.602;2023-12-14T09:18:30;6.40;84.60
975;DHT22;6115;49.296;10.602;2023-12-14T09:23:31;6.40;84.10
975;DHT22;6115;49.296;10.602;2023-12-14T09:28:31;6.60;84.10
975;DHT22;6115;49.296;10.602;2023-12-14T09:33:32;6.90;83.80
975;DHT22;6115;49.296;10.602;2023-12-14T09:38:32;7.00;83.30
975;DHT22;6115;49.296;10.602;2023-12-14T09:43:33;7.10;82.40
975;DHT22;6115;49.296;10.602;2023-12-14T09:48:34;7.10;81.80
975;DHT22;6115;49.296;10.602;2023-12-14T09:53:35;7.30;82.00
975;DHT22;6115;49.296;10.602;2023-12-14T09:58:35;7.70;82.30
975;DHT22;6115;49.296;10.602;2023-12-14T10:03:36;8.10;80.70
975;DHT22;6115;49.296;10.602;2023-12-14T10:08:36;8.30;79.70
975;DHT22;6115;49.296;10.602;2023-12-14T10:13:38;8.00;77.90
975;DHT22;6115;49.296;10.602;2023-12-14T10:18:39;8.00;78.00
975;DHT22;6115;49.296;10.602;2023-12-14T10:23:40;7.90;78.50
975;DHT22;6115;49.296;10.602;2023-12-14T10:28:41;8.50;79.40
975;DHT22;6115;49.296;10.602;2023-12-14T10:33:41;8.90;76.90
975;DHT22;6115;49.296;10.602;2023-12-14T10:38:43;8.70;73.80
975;DHT22;6115;49.296;10.602;2023-12-14T10:43:47;8.70;73.80
975;DHT22;6115;49.296;10.602;2023-12-14T10:48:49;8.70;73.80
975;DHT22;6115;49.296;10.602;2023-12-14T10:53:51;8.80;72.90
975;DHT22;6115;49.296;10.602;2023-12-14T10:58:55;8.80;72.30
975;DHT22;6115;49.296;10.602;2023-12-14T11:03:59;9.00;72.50
975;DHT22;6115;49.296;10.602;2023-12-14T11:09:02;9.30;70.80
975;DHT22;6115;49.296;10.602;2023-12-14T11:14:08;9.60;69.80
975;DHT22;6115;49.296;10.602;2023-12-14T11:24:22;10.00;68.10
975;DHT22;6115;49.296;10.602;2023-12-14T11:29:23;9.60;67.70
975;DHT22;6115;49.296;10.602;2023-12-14T11:34:27;9.00;68.20
975;DHT22;6115;49.296;10.602;2023-12-14T11:39:31;8.70;68.90
975;DHT22;6115;49.296;10.602;2023-12-14T11:44:32;8.50;70.70
975;DHT22;6115;49.296;10.602;2023-12-14T11:49:32;8.50;72.10
975;DHT22;6115;49.296;10.602;2023-12-14T11:54:33;8.60;71.70
975;DHT22;6115;49.296;10.602;2023-12-14T11:59:35;8.70;72.10
975;DHT22;6115;49.296;10.602;2023-12-14T12:04:35;8.70;70.40
975;DHT22;6115;49.296;10.602;2023-12-14T12:09:45;8.70;69.50
975;DHT22;6115;49.296;10.602;2023-12-14T12:14:47;8.70;68.90
975;DHT22;6115;49.296;10.602;2023-12-14T12:19:49;8.50;70.10
975;DHT22;6115;49.296;10.602;2023-12-14T12:24:50;8.50;70.60
975;DHT22;6115;49.296;10.602;2023-12-14T12:29:50;8.20;71.20
975;DHT22;6115;49.296;10.602;2023-12-14T12:34:54;8.20;71.20
975;DHT22;6115;49.296;10.602;2023-12-14T12:39:54;8.00;71.50
975;DHT22;6115;49.296;10.602;2023-12-14T12:44:55;8.10;71.50
975;DHT22;6115;49.296;10.602;2023-12-14T12:49:55;8.10;71.30
975;DHT22;6115;49.296;10.602;2023-12-14T12:54:56;8.10;71.00
975;DHT22;6115;49.296;10.602;2023-12-14T12:59:57;8.10;70.60
975;DHT22;6115;49.296;10.602;2023-12-14T13:04:57;8.00;70.60
975;DHT22;6115;49.296;10.602;2023-12-14T13:09:58;8.00;70.90
975;DHT22;6115;49.296;10.602;2023-12-14T13:14:59;8.00;71.00
975;DHT22;6115;49.296;10.602;2023-12-14T13:20:00;7.90;71.00
975;DHT22;6115;49.296;10.602;2023-12-14T13:25:00;7.80;71.30
975;DHT22;6115;49.296;10.602;2023-12-14T13:30:01;7.80;72.10
975;DHT22;6115;49.296;10.602;2023-12-14T13:35:02;7.80;73.00
975;DHT22;6115;49.296;10.602;2023-12-14T13:40:03;7.80;73.00
975;DHT22;6115;49.296;10.602;2023-12-14T13:45:04;7.80;73.00
975;DHT22;6115;49.296;10.602;2023-12-14T13:50:06;7.70;73.50
975;DHT22;6115;49.296;10.602;2023-12-14T13:55:06;7.60;74.30
975;DHT22;6115;49.296;10.602;2023-12-14T14:00:07;7.60;74.70
975;DHT22;6115;49.296;10.602;2023-12-14T14:05:09;7.60;75.20
975;DHT22;6115;49.296;10.602;2023-12-14T14:10:10;7.50;75.40
975;DHT22;6115;49.296;10.602;2023-12-14T14:15:11;7.30;75.30
975;DHT22;6115;49.296;10.602;2023-12-14T14:20:11;7.30;75.20
975;DHT22;6115;49.296;10.602;2023-12-14T14:25:12;7.10;73.80
975;DHT22;6115;49.296;10.602;2023-12-14T14:30:13;6.90;74.60
975;DHT22;6115;49.296;10.602;2023-12-14T14:35:14;6.80;75.50
975;DHT22;6115;49.296;10.602;2023-12-14T14:40:14;6.70;76.50
975;DHT22;6115;49.296;10.602;2023-12-14T14:45:15;6.70;76.70
975;DHT22;6115;49.296;10.602;2023-12-14T14:50:15;6.70;77.60
975;DHT22;6115;49.296;10.602;2023-12-14T14:55:16;6.70;78.10
975;DHT22;6115;49.296;10.602;2023-12-14T15:00:17;6.70;78.70
975;DHT22;6115;49.296;10.602;2023-12-14T15:05:17;6.70;79.30
975;DHT22;6115;49.296;10.602;2023-12-14T15:10:18;6.70;79.60
975;DHT22;6115;49.296;10.602;2023-12-14T15:15:19;6.60;79.70
975;DHT22;6115;49.296;10.602;2023-12-14T15:20:19;6.60;80.20
975;DHT22;6115;49.296;10.602;2023-12-14T15:25:20;6.50;80.50
975;DHT22;6115;49.296;10.602;2023-12-14T15:30:20;6.60;80.40
975;DHT22;6115;49.296;10.602;2023-12-14T15:35:21;6.60;80.00
975;DHT22;6115;49.296;10.602;2023-12-14T15:40:22;6.60;80.10
975;DHT22;6115;49.296;10.602;2023-12-14T15:45:22;6.50;79.80
975;DHT22;6115;49.296;10.602;2023-12-14T15:50:23;6.50;79.80
975;DHT22;6115;49.296;10.602;2023-12-14T15:55:24;6.60;79.60
975;DHT22;6115;49.296;10.602;2023-12-14T16:00:27;6.50;79.50
975;DHT22;6115;49.296;10.602;2023-12-14T16:05:28;6.50;79.60
975;DHT22;6115;49.296;10.602;2023-12-14T16:10:28;6.40;79.90
975;DHT22;6115;49.296;10.602;2023-12-14T16:15:29;6.30;80.00
975;DHT22;6115;49.296;10.602;2023-12-14T16:20:30;6.30;80.40
975;DHT22;6115;49.296;10.602;2023-12-14T16:25:31;6.40;80.90
975;DHT22;6115;49.296;10.602;2023-12-14T16:30:31;6.40;80.50
975;DHT22;6115;49.296;10.602;2023-12-14T16:35:32;6.40;80.50
975;DHT22;6115;49.296;10.602;2023-12-14T16:40:33;6.40;80.90
975;DHT22;6115;49.296;10.602;2023-12-14T16:45:34;6.30;79.80
975;DHT22;6115;49.296;10.602;2023-12-14T16:50:34;6.30;79.70
975;DHT22;6115;49.296;10.602;2023-12-14T16:55:35;6.40;79.40
975;DHT22;6115;49.296;10.602;2023-12-14T17:00:36;6.40;79.00
975;DHT22;6115;49.296;10.602;2023-12-14T17:05:37;6.30;78.50
975;DHT22;6115;49.296;10.602;2023-12-14T17:10:37;6.30;78.30
975;DHT22;6115;49.296;10.602;2023-12-14T17:15:38;6.40;77.90
975;DHT22;6115;49.296;10.602;2023-12-14T17:20:38;6.30;77.50
975;DHT22;6115;49.296;10.602;2023-12-14T17:25:39;6.20;77.30
975;DHT22;6115;49.296;10.602;2023-12-14T17:30:40;6.20;77.40
975;DHT22;6115;49.296;10.602;2023-12-14T17:35:40;6.10;77.40
975;DHT22;6115;49.296;10.602;2023-12-14T17:40:41;6.20;77.60
975;DHT22;6115;49.296;10.602;2023-12-14T17:45:41;6.20;77.30
975;DHT22;6115;49.296;10.602;2023-12-14T17:50:42;6.20;77.10
975;DHT22;6115;49.296;10.602;2023-12-14T17:55:42;6.20;76.90
975;DHT22;6115;49.296;10.602;2023-12-14T18:00:43;6.20;76.40
975;DHT22;6115;49.296;10.602;2023-12-14T18:05:43;6.10;76.20
975;DHT22;6115;49.296;10.602;2023-12-14T18:10:45;6.10;76.20
975;DHT22;6115;49.296;10.602;2023-12-14T18:15:46;6.10;76.20
975;DHT22;6115;49.296;10.602;2023-12-14T18:20:46;6.10;76.10
975;DHT22;6115;49.296;10.602;2023-12-14T18:25:47;6.10;76.10
975;DHT22;6115;49.296;10.602;2023-12-14T18:30:48;6.00;76.10
975;DHT22;6115;49.296;10.602;2023-12-14T18:35:49;6.00;76.10
975;DHT22;6115;49.296;10.602;2023-12-14T18:40:49;5.90;76.00
975;DHT22;6115;49.296;10.602;2023-12-14T18:45:50;5.90;76.00
975;DHT22;6115;49.296;10.602;2023-12-14T18:50:51;6.00;76.10
975;DHT22;6115;49.296;10.602;2023-12-14T18:55:51;6.00;76.10
975;DHT22;6115;49.296;10.602;2023-12-14T19:00:52;6.00;76.10
975;DHT22;6115;49.296;10.602;2023-12-14T19:05:52;6.00;75.60
975;DHT22;6115;49.296;10.602;2023-12-14T19:10:53;6.00;75.60
975;DHT22;6115;49.296;10.602;2023-12-14T19:15:53;6.00;75.80
975;DHT22;6115;49.296;10.602;2023-12-14T19:20:54;6.00;75.20
975;DHT22;6115;49.296;10.602;2023-12-14T19:25:55;5.90;75.20
975;DHT22;6115;49.296;10.602;2023-12-14T19:30:58;5.90;75.50
975;DHT22;6115;49.296;10.602;2023-12-14T19:35:59;5.90;75.90
975;DHT22;6115;49.296;10.602;2023-12-14T19:40:59;5.80;75.70
975;DHT22;6115;49.296;10.602;2023-12-14T19:46:00;5.60;74.80
975;DHT22;6115;49.296;10.602;2023-12-14T19:51:00;5.60;74.80
975;DHT22;6115;49.296;10.602;2023-12-14T19:56:01;5.50;74.60
975;DHT22;6115;49.296;10.602;2023-12-14T20:01:01;5.40;74.60
975;DHT22;6115;49.296;10.602;2023-12-14T20:06:04;5.30;74.80
975;DHT22;6115;49.296;10.602;2023-12-14T20:11:05;5.30;75.50
975;DHT22;6115;49.296;10.602;2023-12-14T20:16:06;5.30;75.40
975;DHT22;6115;49.296;10.602;2023-12-14T20:21:08;5.30;75.40
975;DHT22;6115;49.296;10.602;2023-12-14T20:26:09;5.30;75.50
975;DHT22;6115;49.296;10.602;2023-12-14T20:31:12;5.10;75.20
975;DHT22;6115;49.296;10.602;2023-12-14T20:36:14;5.10;75.60
975;DHT22;6115;49.296;10.602;2023-12-14T20:41:15;5.00;75.90
975;DHT22;6115;49.296;10.602;2023-12-14T20:46:16;5.10;76.40
975;DHT22;6115;49.296;10.602;2023-12-14T20:51:17;5.10;76.60
975;DHT22;6115;49.296;10.602;2023-12-14T20:56:19;5.00;76.40
975;DHT22;6115;49.296;10.602;2023-12-14T21:01:20;5.00;76.40
975;DHT22;6115;49.296;10.602;2023-12-14T21:06:20;4.90;76.40
975;DHT22;6115;49.296;10.602;2023-12-14T21:11:21;4.90;76.50
975;DHT22;6115;49.296;10.602;2023-12-14T21:16:25;4.90;76.60
975;DHT22;6115;49.296;10.602;2023-12-14T21:21:25;4.90;76.70
975;DHT22;6115;49.296;10.602;2023-12-14T21:26:27;4.90;76.70
975;DHT22;6115;49.296;10.602;2023-12-14T21:31:30;4.90;76.90
975;DHT22;6115;49.296;10.602;2023-12-14T21:36:31;4.80;77.10
975;DHT22;6115;49.296;10.602;2023-12-14T21:41:31;4.80;77.30
975;DHT22;6115;49.296;10.602;2023-12-14T21:46:32;4.80;77.50
975;DHT22;6115;49.296;10.602;2023-12-14T21:51:34;4.80;77.60
975;DHT22;6115;49.296;10.602;2023-12-14T21:56:35;4.80;77.60
975;DHT22;6115;49.296;10.602;2023-12-14T22:01:35;4.90;77.80
975;DHT22;6115;49.296;10.602;2023-12-14T22:06:36;4.80;77.90
975;DHT22;6115;49.296;10.602;2023-12-14T22:11:36;4.80;78.00
975;DHT22;6115;49.296;10.602;2023-12-14T22:16:37;4.80;78.10
975;DHT22;6115;49.296;10.602;2023-12-14T22:21:38;4.80;78.20
975;DHT22;6115;49.296;10.602;2023-12-14T22:26:38;4.80;78.20
975;DHT22;6115;49.296;10.602;2023-12-14T22:31:39;4.80;77.90
975;DHT22;6115;49.296;10.602;2023-12-14T22:36:39;4.80;77.90
975;DHT22;6115;49.296;10.602;2023-12-14T22:41:40;4.70;77.90
975;DHT22;6115;49.296;10.602;2023-12-14T22:46:41;4.80;78.20
975;DHT22;6115;49.296;10.602;2023-12-14T22:51:41;4.70;78.20
975;DHT22;6115;49.296;10.602;2023-12-14T22:56:42;4.80;78.20
975;DHT22;6115;49.296;10.602;2023-12-14T23:01:42;4.70;78.10
975;DHT22;6115;49.296;10.602;2023-12-14T23:06:43;4.80;78.20
975;DHT22;6115;49.296;10.602;2023-12-14T23:11:43;4.70;78.10
975;DHT22;6115;49.296;10.602;2023-12-14T23:16:45;4.80;78.00
975;DHT22;6115;49.296;10.602;2023-12-14T23:21:46;4.70;77.80
975;DHT22;6115;49.296;10.602;2023-12-14T23:26:46;4.80;77.60
975;DHT22;6115;49.296;10.602;2023-12-14T23:31:47;4.70;76.50
975;DHT22;6115;49.296;10.602;2023-12-14T23:36:47;4.70;76.10
975;DHT22;6115;49.296;10.602;2023-12-14T23:41:48;4.70;75.10
975;DHT22;6115;49.296;10.602;2023-12-14T23:46:48;4.60;74.80
975;DHT22;6115;49.296;10.602;2023-12-14T23:51:49;4.50;74.70
975;DHT22;6115;49.296;10.602;2023-12-14T23:56:49;4.40;74.60
